createdAt,value
2018-07-26T00:00:30.679Z,82.40
2018-07-26T00:02:59.349Z,82.57
2018-07-26T00:05:28.059Z,82.69
2018-07-26T00:07:56.733Z,82.88
2018-07-26T00:10:25.408Z,83.56
2018-07-26T00:12:54.431Z,83.04
2018-07-26T00:15:23.118Z,82.63
2018-07-26T00:17:51.756Z,81.29
2018-07-26T00:20:20.446Z,82.13
2018-07-26T00:22:49.124Z,83.75
2018-07-26T00:25:17.790Z,84.97
2018-07-26T00:27:46.588Z,84.97
2018-07-26T00:30:15.314Z,85.25
2018-07-26T00:32:43.953Z,85.06
2018-07-26T00:35:12.645Z,84.06
2018-07-26T00:37:41.292Z,84.65
2018-07-26T00:40:09.984Z,84.57
2018-07-26T00:42:38.640Z,85.09
2018-07-26T00:45:07.543Z,85.66
2018-07-26T00:47:36.181Z,84.64
2018-07-26T00:50:05.032Z,84.25
2018-07-26T00:52:33.705Z,84.41
2018-07-26T00:55:02.397Z,83.94
2018-07-26T00:57:31.043Z,83.59
2018-07-26T00:59:59.710Z,83.97
2018-07-26T01:02:28.370Z,84.60
2018-07-26T01:04:57.041Z,84.70
2018-07-26T01:07:25.735Z,85.00
2018-07-26T01:09:54.435Z,85.23
2018-07-26T01:12:23.084Z,85.18
2018-07-26T01:14:51.755Z,85.54
2018-07-26T01:17:20.434Z,85.82
2018-07-26T01:19:49.196Z,86.18
2018-07-26T01:22:17.865Z,87.50
2018-07-26T01:24:46.554Z,86.95
2018-07-26T01:27:15.212Z,85.30
2018-07-26T01:29:43.887Z,84.03
2018-07-26T01:32:12.552Z,83.85
2018-07-26T01:34:41.229Z,83.94
2018-07-26T01:37:09.870Z,83.98
2018-07-26T01:39:38.560Z,84.02
2018-07-26T01:42:07.205Z,84.52
2018-07-26T01:44:35.860Z,85.02
2018-07-26T01:47:04.549Z,85.40
2018-07-26T01:49:33.199Z,85.63
2018-07-26T01:52:01.891Z,84.45
2018-07-26T01:54:30.540Z,86.26
2018-07-26T01:56:59.226Z,87.72
2018-07-26T01:59:27.860Z,88.69
2018-07-26T02:01:56.535Z,88.24
2018-07-26T02:04:25.181Z,88.89
2018-07-26T02:06:53.957Z,89.74
2018-07-26T02:09:22.635Z,89.76
2018-07-26T02:11:51.315Z,89.73
2018-07-26T02:14:25.135Z,90.06
2018-07-26T02:16:53.874Z,89.80
2018-07-26T02:19:22.531Z,89.04
2018-07-26T02:21:51.216Z,87.38
2018-07-26T02:24:19.882Z,86.33
2018-07-26T02:26:48.540Z,86.95
2018-07-26T02:29:17.182Z,87.06
2018-07-26T02:31:45.901Z,86.48
2018-07-26T02:34:14.541Z,86.25
2018-07-26T02:36:43.289Z,86.20
2018-07-26T02:39:11.964Z,86.03
2018-07-26T02:41:40.657Z,85.94
2018-07-26T02:44:09.310Z,88.19
2018-07-26T02:46:38.020Z,89.34
2018-07-26T02:49:06.672Z,89.51
2018-07-26T02:51:35.347Z,90.09
2018-07-26T02:54:04.055Z,90.54
2018-07-26T02:56:32.724Z,90.58
2018-07-26T02:59:01.353Z,89.36
2018-07-26T03:01:30.013Z,88.87
2018-07-26T03:03:58.670Z,87.26
2018-07-26T03:06:27.420Z,86.71
2018-07-26T03:08:56.068Z,86.96
2018-07-26T03:11:24.748Z,87.90
2018-07-26T03:13:53.388Z,88.04
2018-07-26T03:16:22.212Z,87.96
2018-07-26T03:18:50.891Z,87.51
2018-07-26T03:21:19.570Z,88.19
2018-07-26T03:23:48.224Z,89.17
2018-07-26T03:26:16.881Z,89.51
2018-07-26T03:28:45.535Z,89.83
2018-07-26T03:31:14.205Z,89.12
2018-07-26T03:33:42.862Z,89.12
2018-07-26T03:36:11.536Z,88.63
2018-07-26T03:38:40.187Z,87.87
2018-07-26T03:41:08.873Z,87.36
2018-07-26T03:43:37.533Z,87.25
2018-07-26T03:46:06.340Z,87.31
2018-07-26T03:48:34.987Z,87.69
2018-07-26T03:51:03.768Z,87.71
2018-07-26T03:53:32.413Z,89.33
2018-07-26T03:56:01.067Z,90.23
2018-07-26T03:58:29.740Z,91.81
2018-07-26T04:00:58.385Z,92.53
2018-07-26T04:03:27.052Z,91.41
2018-07-26T04:05:55.731Z,89.34
2018-07-26T04:08:24.409Z,88.63
2018-07-26T04:10:53.091Z,88.66
2018-07-26T04:13:21.761Z,88.68
2018-07-26T04:15:50.422Z,88.66
2018-07-26T04:18:19.104Z,88.32
2018-07-26T04:20:47.747Z,88.37
2018-07-26T04:23:16.470Z,88.81
2018-07-26T04:25:45.145Z,89.41
2018-07-26T04:28:13.829Z,89.67
2018-07-26T04:30:42.495Z,89.74
2018-07-26T04:33:11.148Z,90.32
2018-07-26T04:35:39.796Z,89.35
2018-07-26T04:38:08.468Z,88.77
2018-07-26T04:40:37.138Z,88.73
2018-07-26T04:43:05.841Z,88.67
2018-07-26T04:45:34.514Z,88.30
2018-07-26T04:48:03.269Z,87.66
2018-07-26T04:50:31.923Z,87.05
2018-07-26T04:53:00.644Z,87.30
2018-07-26T04:55:29.305Z,87.55
2018-07-26T04:57:57.984Z,87.54
2018-07-26T05:00:26.651Z,87.15
2018-07-26T05:02:55.340Z,86.95
2018-07-26T05:05:24.233Z,86.60
2018-07-26T05:07:53.082Z,86.12
2018-07-26T05:10:21.795Z,85.81
2018-07-26T05:12:50.839Z,85.48
2018-07-26T05:15:19.547Z,84.79
2018-07-26T05:17:48.203Z,83.67
2018-07-26T05:20:16.868Z,80.79
2018-07-26T05:22:45.545Z,77.54
2018-07-26T05:25:14.206Z,76.52
2018-07-26T05:27:42.970Z,74.84
2018-07-26T05:30:11.632Z,72.78
2018-07-26T05:32:40.307Z,71.51
2018-07-26T05:35:08.984Z,70.41
2018-07-26T05:37:37.681Z,69.84
2018-07-26T05:40:06.477Z,66.76
2018-07-26T05:42:35.196Z,60.74
2018-07-26T05:45:03.894Z,56.70
2018-07-26T05:47:32.602Z,53.42
2018-07-26T05:50:01.250Z,51.32
2018-07-26T05:52:29.932Z,50.96
2018-07-26T05:54:58.589Z,52.53
2018-07-26T05:57:27.269Z,53.07
2018-07-26T05:59:55.967Z,55.53
2018-07-26T06:02:24.621Z,57.82
2018-07-26T06:04:53.295Z,59.43
2018-07-26T06:07:22.028Z,60.55
2018-07-26T06:09:50.668Z,61.44
2018-07-26T06:12:19.335Z,61.10
2018-07-26T06:14:48.025Z,59.55
2018-07-26T06:17:16.729Z,60.34
2018-07-26T06:19:45.375Z,59.63
2018-07-26T06:22:14.003Z,62.12
2018-07-26T06:24:42.694Z,62.34
2018-07-26T06:27:11.472Z,63.28
2018-07-26T06:29:40.178Z,64.12
2018-07-26T06:32:08.846Z,64.86
2018-07-26T06:34:37.516Z,64.42
2018-07-26T06:37:06.426Z,64.23
2018-07-26T06:39:35.271Z,64.17
2018-07-26T06:42:03.965Z,64.30
2018-07-26T06:44:32.617Z,63.87
2018-07-26T06:47:01.286Z,64.33
2018-07-26T06:49:29.960Z,64.20
2018-07-26T06:51:58.605Z,62.95
2018-07-26T06:54:27.288Z,63.24
2018-07-26T06:56:55.927Z,63.00
2018-07-26T06:59:24.610Z,62.99
2018-07-26T07:01:54.449Z,61.17
2018-07-26T07:04:23.406Z,62.57
2018-07-26T07:06:52.103Z,61.24
2018-07-26T07:09:20.752Z,59.97
2018-07-26T07:11:49.490Z,59.58
2018-07-26T07:14:18.166Z,59.25
2018-07-26T07:16:46.836Z,56.55
2018-07-26T07:19:15.488Z,55.67
2018-07-26T07:21:44.128Z,56.53
2018-07-26T07:24:16.922Z,55.91
2018-07-26T07:26:45.550Z,54.75
2018-07-26T07:29:14.209Z,53.51
2018-07-26T07:31:42.837Z,52.70
2018-07-26T07:34:11.486Z,51.61
2018-07-26T07:36:40.129Z,51.07
2018-07-26T07:39:11.564Z,50.63
2018-07-26T07:41:40.296Z,49.60
2018-07-26T07:44:09.492Z,49.47
2018-07-26T07:46:38.612Z,49.79
2018-07-26T07:49:07.499Z,47.71
2018-07-26T07:52:02.822Z,45.96
2018-07-26T07:54:31.487Z,45.93
2018-07-26T07:57:00.160Z,47.25
2018-07-26T07:59:28.886Z,46.29
2018-07-26T08:01:57.508Z,46.11
2018-07-26T08:04:26.160Z,45.17
2018-07-26T08:06:54.823Z,44.54
2018-07-26T08:09:23.479Z,43.69
2018-07-26T08:11:52.136Z,43.79
2018-07-26T08:14:20.790Z,42.40
2018-07-26T08:16:49.449Z,43.52
2018-07-26T08:19:18.133Z,43.04
2018-07-26T08:21:46.770Z,43.50
2018-07-26T08:24:15.465Z,41.92
2018-07-26T08:26:44.100Z,40.24
2018-07-26T08:29:12.778Z,41.06
2018-07-26T08:31:41.419Z,41.65
2018-07-26T08:34:10.101Z,41.08
2018-07-26T08:36:38.753Z,40.34
2018-07-26T08:39:09.857Z,40.61
2018-07-26T08:41:38.484Z,40.60
2018-07-26T08:44:07.135Z,39.67
2018-07-26T08:46:35.831Z,39.67
2018-07-26T08:49:04.517Z,38.45
2018-07-26T08:51:33.277Z,38.86
2018-07-26T08:54:01.911Z,38.19
2018-07-26T08:56:30.573Z,38.57
2018-07-26T08:58:59.231Z,38.44
2018-07-26T09:01:27.914Z,37.41
2018-07-26T09:03:56.550Z,38.17
2018-07-26T09:06:25.247Z,38.25
2018-07-26T09:08:53.883Z,38.70
2018-07-26T09:11:22.559Z,38.47
2018-07-26T09:13:51.260Z,38.83
2018-07-26T09:16:20.113Z,39.04
2018-07-26T09:18:48.767Z,38.24
2018-07-26T09:21:17.445Z,38.27
2018-07-26T09:23:46.129Z,38.88
2018-07-26T09:26:14.892Z,37.74
2018-07-26T09:28:43.537Z,38.11
2018-07-26T09:31:12.210Z,38.47
2018-07-26T09:33:40.899Z,38.26
2018-07-26T09:36:10.204Z,39.05
2018-07-26T09:38:38.868Z,38.41
2018-07-26T09:41:07.612Z,38.82
2018-07-26T09:43:36.269Z,38.18
2018-07-26T09:46:04.984Z,38.72
2018-07-26T09:48:33.651Z,39.18
2018-07-26T09:51:02.323Z,38.27
2018-07-26T09:53:31.053Z,37.61
2018-07-26T09:55:59.743Z,38.36
2018-07-26T09:58:28.397Z,37.81
2018-07-26T10:01:02.234Z,38.40
2018-07-26T10:03:30.881Z,37.97
2018-07-26T10:05:59.568Z,38.17
2018-07-26T10:08:28.228Z,38.59
2018-07-26T10:10:56.890Z,38.39
2018-07-26T10:13:25.534Z,38.16
2018-07-26T10:15:54.259Z,38.84
2018-07-26T10:18:22.878Z,38.05
2018-07-26T10:20:51.551Z,36.88
2018-07-26T10:23:20.221Z,38.94
2018-07-26T10:25:48.883Z,37.86
2018-07-26T10:28:17.530Z,37.28
2018-07-26T10:30:46.201Z,36.83
2018-07-26T10:33:14.842Z,37.13
2018-07-26T10:35:43.535Z,37.23
2018-07-26T10:38:12.175Z,36.66
2018-07-26T10:40:40.828Z,37.28
2018-07-26T10:43:09.474Z,36.00
2018-07-26T10:45:38.151Z,36.35
2018-07-26T10:48:07.031Z,35.80
2018-07-26T10:50:35.716Z,36.78
2018-07-26T10:53:04.385Z,36.38
2018-07-26T10:55:33.034Z,37.07
2018-07-26T10:58:01.707Z,37.24
2018-07-26T11:00:30.360Z,37.32
2018-07-26T11:02:59.036Z,36.88
2018-07-26T11:05:27.709Z,37.02
2018-07-26T11:07:56.373Z,36.42
2018-07-26T11:10:25.012Z,36.00
2018-07-26T11:12:53.676Z,36.12
2018-07-26T11:15:34.337Z,36.54
2018-07-26T11:18:03.269Z,36.27
2018-07-26T11:20:31.896Z,36.28
2018-07-26T11:23:00.739Z,36.58
2018-07-26T11:25:29.449Z,36.71
2018-07-26T11:27:58.127Z,37.93
2018-07-26T11:30:26.765Z,38.16
2018-07-26T11:32:55.461Z,37.18
2018-07-26T11:35:24.130Z,38.18
2018-07-26T11:37:52.800Z,37.16
2018-07-26T11:40:21.493Z,37.11
2018-07-26T11:42:50.211Z,36.10
2018-07-26T11:45:18.855Z,35.63
2018-07-26T11:47:47.508Z,35.73
2018-07-26T11:50:16.160Z,36.17
2018-07-26T11:52:44.822Z,35.57
2018-07-26T11:55:13.484Z,37.17
2018-07-26T11:57:42.159Z,36.72
2018-07-26T12:00:10.829Z,37.70
2018-07-26T12:02:39.500Z,37.87
2018-07-26T12:05:08.157Z,37.81
2018-07-26T12:07:36.848Z,37.61
2018-07-26T12:10:05.827Z,38.71
2018-07-26T12:12:35.341Z,39.05
2018-07-26T12:15:04.119Z,39.45
2018-07-26T12:17:32.789Z,39.92
2018-07-26T12:20:01.429Z,39.94
2018-07-26T12:22:30.103Z,39.17
2018-07-26T12:24:58.740Z,37.61
2018-07-26T12:27:27.423Z,37.83
2018-07-26T12:29:56.091Z,37.61
2018-07-26T12:32:24.783Z,38.97
2018-07-26T12:34:53.446Z,37.87
2018-07-26T12:37:22.108Z,36.10
2018-07-26T12:39:50.737Z,36.27
2018-07-26T12:42:21.265Z,35.38
2018-07-26T12:44:49.985Z,35.06
2018-07-26T12:47:18.665Z,35.41
2018-07-26T12:49:47.358Z,35.91
2018-07-26T12:52:18.614Z,36.33
2018-07-26T12:54:47.308Z,37.31
2018-07-26T12:57:16.143Z,36.93
2018-07-26T12:59:44.859Z,36.48
2018-07-26T13:02:13.660Z,36.16
2018-07-26T13:04:42.308Z,37.55
2018-07-26T13:07:11.106Z,38.35
2018-07-26T13:09:39.760Z,38.78
2018-07-26T13:12:08.504Z,38.93
2018-07-26T13:14:37.170Z,38.62
2018-07-26T13:17:05.827Z,38.21
2018-07-26T13:19:34.495Z,36.00
2018-07-26T13:22:03.142Z,35.32
2018-07-26T13:24:31.815Z,34.98
2018-07-26T13:27:00.508Z,35.04
2018-07-26T13:29:29.188Z,35.68
2018-07-26T13:31:57.828Z,36.58
2018-07-26T13:34:26.514Z,36.71
2018-07-26T13:36:55.216Z,36.40
2018-07-26T13:39:23.877Z,35.70
2018-07-26T13:41:52.544Z,35.06
2018-07-26T13:44:21.199Z,35.46
2018-07-26T13:46:49.860Z,34.19
2018-07-26T13:49:18.526Z,34.05
2018-07-26T13:51:47.155Z,32.71
2018-07-26T13:54:15.796Z,32.85
2018-07-26T13:56:44.430Z,32.56
2018-07-26T13:59:13.104Z,33.92
2018-07-26T14:01:41.766Z,34.50
2018-07-26T14:04:10.423Z,35.85
2018-07-26T14:06:39.078Z,37.00
2018-07-26T14:09:09.968Z,37.52
2018-07-26T14:11:38.596Z,37.72
2018-07-26T14:14:07.664Z,38.41
2018-07-26T14:16:36.318Z,38.82
2018-07-26T14:19:05.335Z,39.68
2018-07-26T14:21:33.985Z,39.83
2018-07-26T14:24:03.605Z,39.48
2018-07-26T14:26:32.660Z,38.13
2018-07-26T14:29:01.336Z,37.57
2018-07-26T14:31:29.998Z,35.54
2018-07-26T14:33:58.661Z,35.25
2018-07-26T14:36:27.352Z,34.03
2018-07-26T14:38:57.365Z,34.37
2018-07-26T14:41:26.041Z,33.54
2018-07-26T14:43:54.721Z,33.88
2018-07-26T14:46:23.399Z,33.87
2018-07-26T14:48:52.089Z,33.15
2018-07-26T14:51:20.743Z,33.62
2018-07-26T14:53:49.440Z,33.04
2018-07-26T14:56:18.073Z,33.17
2018-07-26T14:58:46.761Z,34.23
2018-07-26T15:01:15.421Z,33.83
2018-07-26T15:03:44.084Z,33.96
2018-07-26T15:06:12.829Z,33.54
2018-07-26T15:08:41.505Z,33.89
2018-07-26T15:11:10.180Z,33.63
2018-07-26T15:13:38.888Z,34.30
2018-07-26T15:16:07.519Z,34.45
2018-07-26T15:18:36.210Z,36.27
2018-07-26T15:21:04.892Z,36.59
2018-07-26T15:23:33.660Z,37.26
2018-07-26T15:26:02.320Z,38.38
2018-07-26T15:28:31.000Z,38.13
2018-07-26T15:30:59.664Z,37.62
2018-07-26T15:33:28.329Z,36.97
2018-07-26T15:35:56.994Z,36.59
2018-07-26T15:38:25.624Z,37.29
2018-07-26T15:40:54.351Z,37.25
2018-07-26T15:43:22.999Z,37.96
2018-07-26T15:45:51.685Z,37.78
2018-07-26T15:48:20.336Z,38.30
2018-07-26T15:50:49.021Z,38.88
2018-07-26T15:53:17.671Z,39.21
2018-07-26T15:55:46.358Z,40.61
2018-07-26T15:58:15.018Z,40.89
2018-07-26T16:00:43.698Z,41.18
2018-07-26T16:03:12.349Z,41.50
2018-07-26T16:05:41.040Z,41.54
2018-07-26T16:08:09.682Z,41.88
2018-07-26T16:10:38.355Z,41.83
2018-07-26T16:13:07.047Z,41.70
2018-07-26T16:15:35.728Z,42.04
2018-07-26T16:18:04.453Z,42.16
2018-07-26T16:20:33.114Z,41.83
2018-07-26T16:23:01.820Z,42.19
2018-07-26T16:25:30.479Z,41.55
2018-07-26T16:27:59.139Z,40.80
2018-07-26T16:30:27.804Z,41.37
2018-07-26T16:32:56.499Z,41.41
2018-07-26T16:35:25.179Z,40.51
2018-07-26T16:37:53.849Z,40.95
2018-07-26T16:40:22.541Z,40.71
2018-07-26T16:42:51.209Z,40.45
2018-07-26T16:45:20.007Z,40.52
2018-07-26T16:47:48.661Z,40.26
2018-07-26T16:50:17.355Z,40.14
2018-07-26T16:52:46.229Z,39.24
2018-07-26T16:55:14.927Z,38.87
2018-07-26T16:57:43.548Z,38.72
2018-07-26T17:00:12.250Z,39.25
2018-07-26T17:02:40.941Z,38.61
2018-07-26T17:05:10.129Z,38.47
2018-07-26T17:07:38.859Z,38.22
2018-07-26T17:10:08.382Z,38.61
2018-07-26T17:12:37.213Z,38.67
2018-07-26T17:15:07.237Z,38.83
2018-07-26T17:17:35.894Z,38.66
2018-07-26T17:20:05.367Z,38.46
2018-07-26T17:22:34.047Z,38.88
2018-07-26T17:25:02.738Z,38.53
2018-07-26T17:27:31.548Z,39.58
2018-07-26T17:30:00.220Z,38.66
2018-07-26T17:32:28.896Z,39.01
2018-07-26T17:34:57.584Z,39.28
2018-07-26T17:37:26.238Z,38.86
2018-07-26T17:39:54.945Z,39.42
2018-07-26T17:42:23.634Z,39.48
2018-07-26T17:44:52.331Z,39.84
2018-07-26T17:47:21.030Z,40.15
2018-07-26T17:49:49.674Z,39.91
2018-07-26T17:52:18.339Z,40.31
2018-07-26T17:54:46.979Z,39.60
2018-07-26T17:57:15.648Z,38.34
2018-07-26T17:59:44.622Z,37.27
2018-07-26T18:02:13.274Z,37.20
2018-07-26T18:04:42.083Z,37.07
2018-07-26T18:07:10.792Z,36.97
2018-07-26T18:09:39.419Z,37.04
2018-07-26T18:12:08.113Z,37.15
2018-07-26T18:14:36.839Z,37.79
2018-07-26T18:17:05.647Z,37.61
2018-07-26T18:19:34.280Z,38.22
2018-07-26T18:22:03.042Z,38.25
2018-07-26T18:24:31.705Z,38.51
2018-07-26T18:27:00.368Z,38.83
2018-07-26T18:29:29.015Z,39.88
2018-07-26T18:31:57.798Z,39.78
2018-07-26T18:34:26.439Z,39.96
2018-07-26T18:36:55.103Z,40.73
2018-07-26T18:39:23.740Z,40.76
2018-07-26T18:41:52.436Z,41.69
2018-07-26T18:44:21.078Z,41.58
2018-07-26T18:46:49.738Z,42.41
2018-07-26T18:49:18.406Z,42.95
2018-07-26T18:51:47.092Z,43.81
2018-07-26T18:54:15.726Z,44.28
2018-07-26T18:56:44.425Z,45.30
2018-07-26T18:59:13.054Z,46.26
2018-07-26T19:01:41.732Z,46.71
2018-07-26T19:04:10.366Z,47.37
2018-07-26T19:06:39.052Z,47.37
2018-07-26T19:09:09.789Z,47.68
2018-07-26T19:11:38.466Z,47.96
2018-07-26T19:14:07.129Z,48.16
2018-07-26T19:16:35.801Z,48.51
2018-07-26T19:19:04.561Z,48.87
2018-07-26T19:21:33.240Z,49.22
2018-07-26T19:24:01.894Z,49.52
2018-07-26T19:26:30.546Z,49.85
2018-07-26T19:28:59.176Z,50.41
2018-07-26T19:31:27.876Z,50.50
2018-07-26T19:33:56.520Z,50.91
2018-07-26T19:36:25.192Z,51.56
2018-07-26T19:38:53.817Z,51.59
2018-07-26T19:41:22.472Z,51.87
2018-07-26T19:43:51.144Z,52.37
2018-07-26T19:46:19.783Z,52.32
2018-07-26T19:48:48.443Z,52.75
2018-07-26T19:51:17.086Z,52.98
2018-07-26T19:53:45.769Z,53.67
2018-07-26T19:56:14.447Z,53.89
2018-07-26T19:58:43.158Z,54.40
2018-07-26T20:01:11.804Z,54.68
2018-07-26T20:03:40.471Z,55.19
2018-07-26T20:06:09.137Z,55.24
2018-07-26T20:08:37.876Z,55.58
2018-07-26T20:11:06.753Z,55.70
2018-07-26T20:13:35.472Z,55.98
2018-07-26T20:16:04.135Z,56.78
2018-07-26T20:18:32.780Z,56.31
2018-07-26T20:21:01.429Z,55.99
2018-07-26T20:23:36.821Z,56.46
2018-07-26T20:26:05.562Z,56.28
2018-07-26T20:28:34.240Z,56.60
2018-07-26T20:31:02.876Z,57.49
2018-07-26T20:33:31.594Z,57.26
2018-07-26T20:36:00.233Z,58.45
2018-07-26T20:38:28.904Z,58.74
2018-07-26T20:40:57.572Z,58.87
2018-07-26T20:43:26.288Z,58.91
2018-07-26T20:45:54.956Z,59.80
2018-07-26T20:48:23.689Z,59.88
2018-07-26T20:50:52.297Z,59.96
2018-07-26T20:53:20.962Z,60.28
2018-07-26T20:55:49.606Z,60.38
2018-07-26T20:58:18.269Z,59.86
2018-07-26T21:00:46.936Z,60.06
2018-07-26T21:03:15.613Z,60.16
2018-07-26T21:05:44.309Z,60.35
2018-07-26T21:08:13.009Z,60.63
2018-07-26T21:10:41.669Z,60.63
2018-07-26T21:13:10.563Z,60.55
2018-07-26T21:15:39.204Z,61.12
2018-07-26T21:18:07.989Z,60.94
2018-07-26T21:20:37.145Z,61.31
2018-07-26T21:23:05.878Z,61.12
2018-07-26T21:25:34.536Z,61.69
2018-07-26T21:28:03.197Z,62.05
2018-07-26T21:30:32.015Z,62.68
2018-07-26T21:33:00.686Z,63.12
2018-07-26T21:35:29.333Z,63.78
2018-07-26T21:37:58.000Z,63.94
2018-07-26T21:40:26.697Z,64.19
2018-07-26T21:42:55.357Z,64.54
2018-07-26T21:45:23.987Z,65.01
2018-07-26T21:47:52.663Z,65.39
2018-07-26T21:50:21.300Z,66.41
2018-07-26T21:52:50.316Z,67.66
2018-07-26T21:55:18.979Z,68.32
2018-07-26T21:57:47.647Z,69.14
2018-07-26T22:00:16.315Z,69.17
2018-07-26T22:02:44.956Z,69.10
2018-07-26T22:05:13.664Z,69.35
2018-07-26T22:07:42.335Z,68.98
2018-07-26T22:10:11.005Z,69.14
2018-07-26T22:12:39.664Z,68.68
2018-07-26T22:15:08.421Z,68.94
2018-07-26T22:17:37.090Z,69.57
2018-07-26T22:20:06.086Z,70.68
2018-07-26T22:22:34.744Z,70.85
2018-07-26T22:25:03.420Z,71.34
2018-07-26T22:27:32.088Z,71.89
2018-07-26T22:30:00.773Z,71.90
2018-07-26T22:32:29.406Z,72.18
2018-07-26T22:34:57.955Z,72.34
2018-07-26T22:37:26.459Z,72.30
2018-07-26T22:39:55.011Z,72.42
2018-07-26T22:42:23.510Z,72.09
2018-07-26T22:44:52.036Z,72.29
2018-07-26T22:47:20.557Z,72.67
2018-07-26T22:49:49.112Z,72.81
2018-07-26T22:52:17.694Z,73.16
2018-07-26T22:54:46.248Z,73.37
2018-07-26T22:57:14.795Z,73.77
2018-07-26T22:59:43.339Z,73.93
2018-07-26T23:02:11.867Z,73.48
2018-07-26T23:04:40.411Z,73.28
2018-07-26T23:07:09.038Z,73.06
2018-07-26T23:09:37.607Z,72.93
2018-07-26T23:12:06.367Z,72.56
2018-07-26T23:14:34.904Z,73.48
2018-07-26T23:17:03.444Z,74.18
2018-07-26T23:19:32.076Z,74.38
2018-07-26T23:22:00.638Z,74.69
2018-07-26T23:24:29.227Z,75.04
2018-07-26T23:26:57.759Z,74.76
2018-07-26T23:29:26.293Z,74.42
2018-07-26T23:31:54.824Z,74.18
2018-07-26T23:34:23.358Z,74.32
2018-07-26T23:36:51.878Z,74.41
2018-07-26T23:39:20.426Z,74.29
2018-07-26T23:41:48.946Z,74.27
2018-07-26T23:44:17.491Z,74.37
2018-07-26T23:46:46.013Z,74.47
2018-07-26T23:49:14.537Z,74.39
2018-07-26T23:51:43.051Z,74.48
2018-07-26T23:54:11.604Z,74.70
2018-07-26T23:56:40.122Z,75.06
2018-07-26T23:59:08.672Z,74.92
